Time;durP1;ratioP1;P1;durP2;ratioP2;P2;SDS_P1;SDS_P2;PMS_P1;PMS_P2;Temp;Humidity;BMP_temperature;BMP_pressure;BME280_temperature;BME280_humidity;BME280_pressure;Samples;Min_cycle;Max_cycle;Signal;HPM_P1;HPM_P2
2024/01/03 00:00:56;;;;;;;;;;;22.00;37.30;;;;;;5075194;28;19985;-54
2024/01/03 00:03:24;;;;;;;;;;;22.00;37.30;;;;;;5074826;28;19929;-51
2024/01/03 00:05:51;;;;;;;;;;;22.00;37.30;;;;;;5075020;28;20111;-51
2024/01/03 00:08:26;;;;;;;;;;;22.00;37.30;;;;;;5074670;28;19925;-52
2024/01/03 00:10:55;;;;;;;;;;;22.00;37.30;;;;;;5074872;28;19932;-53
2024/01/03 00:13:42;;;;;;;;;;;22.00;37.40;;;;;;5074543;28;19924;-49
2024/01/03 00:16:18;;;;;;;;;;;22.00;37.30;;;;;;5059899;28;19970;-54
2024/01/03 00:18:51;;;;;;;;;;;22.00;37.30;;;;;;5074746;28;19970;-50
2024/01/03 00:21:22;;;;;;;;;;;22.00;37.40;;;;;;5074497;28;19985;-49
2024/01/03 00:23:52;;;;;;;;;;;22.00;37.30;;;;;;5074546;28;19971;-52
2024/01/03 00:26:19;;;;;;;;;;;22.00;37.30;;;;;;5056976;28;19931;-50
2024/01/03 00:28:46;;;;;;;;;;;22.00;37.30;;;;;;5074063;28;19925;-50
2024/01/03 00:31:22;;;;;;;;;;;22.00;37.30;;;;;;5074582;28;19931;-53
2024/01/03 00:33:48;;;;;;;;;;;22.00;37.30;;;;;;5073737;28;19924;-51
2024/01/03 00:36:16;;;;;;;;;;;22.00;37.30;;;;;;5073996;28;19929;-48
2024/01/03 00:38:43;;;;;;;;;;;22.00;37.30;;;;;;5074018;28;20377;-52
2024/01/03 00:41:11;;;;;;;;;;;22.00;37.30;;;;;;5074439;28;19925;-51
2024/01/03 00:43:38;;;;;;;;;;;22.00;37.30;;;;;;5056219;28;20449;-52
2024/01/03 00:46:06;;;;;;;;;;;22.00;37.30;;;;;;5073922;28;19974;-56
2024/01/03 00:48:34;;;;;;;;;;;22.00;37.30;;;;;;5074110;28;19928;-50
2024/01/03 00:51:02;;;;;;;;;;;22.00;37.40;;;;;;5074296;28;20377;-50
2024/01/03 00:53:29;;;;;;;;;;;22.00;37.40;;;;;;5074288;28;19954;-52
2024/01/03 00:55:56;;;;;;;;;;;22.00;37.40;;;;;;5074067;28;19931;-49
2024/01/03 00:58:23;;;;;;;;;;;22.00;37.40;;;;;;5055646;28;19938;-52
2024/01/03 01:00:50;;;;;;;;;;;22.00;37.30;;;;;;5073098;28;19970;-52
2024/01/03 01:03:17;;;;;;;;;;;22.00;37.30;;;;;;5073895;28;19924;-50
2024/01/03 01:05:44;;;;;;;;;;;22.10;37.40;;;;;;5056174;28;19928;-50
2024/01/03 01:08:11;;;;;;;;;;;22.00;37.30;;;;;;5073504;28;19932;-55
2024/01/03 01:10:38;;;;;;;;;;;22.00;37.30;;;;;;5074167;28;20026;-54
2024/01/03 01:13:05;;;;;;;;;;;22.00;37.40;;;;;;5073589;28;19928;-55
2024/01/03 01:15:32;;;;;;;;;;;22.00;37.30;;;;;;5073977;28;19999;-55
2024/01/03 01:17:59;;;;;;;;;;;22.00;37.30;;;;;;5073392;28;19931;-55
2024/01/03 01:20:26;;;;;;;;;;;22.00;37.30;;;;;;5073576;28;20404;-55
2024/01/03 01:22:53;;;;;;;;;;;22.00;37.30;;;;;;5073353;28;19925;-54
2024/01/03 01:25:20;;;;;;;;;;;22.00;37.30;;;;;;5073634;28;19924;-54
2024/01/03 01:27:47;;;;;;;;;;;22.00;37.30;;;;;;5073302;28;19924;-55
2024/01/03 01:30:14;;;;;;;;;;;22.00;37.30;;;;;;5073615;28;19932;-55
2024/01/03 01:32:41;;;;;;;;;;;22.00;37.30;;;;;;5073373;28;19932;-52
2024/01/03 01:35:08;;;;;;;;;;;22.00;37.30;;;;;;5073640;28;19932;-54
2024/01/03 01:37:35;;;;;;;;;;;22.00;37.30;;;;;;5073207;28;20373;-54
2024/01/03 01:40:02;;;;;;;;;;;22.00;37.30;;;;;;5073462;28;20362;-54
2024/01/03 01:42:30;;;;;;;;;;;22.00;37.30;;;;;;5055537;28;19929;-55
2024/01/03 01:44:57;;;;;;;;;;;22.00;37.30;;;;;;5073187;28;19964;-55
2024/01/03 01:47:25;;;;;;;;;;;22.00;37.30;;;;;;5073485;28;19928;-55
2024/01/03 01:49:53;;;;;;;;;;;22.00;37.30;;;;;;5072673;28;19932;-54
2024/01/03 01:52:20;;;;;;;;;;;22.00;37.30;;;;;;5073603;28;19925;-55
2024/01/03 01:54:48;;;;;;;;;;;22.00;37.30;;;;;;5073574;28;19924;-55
2024/01/03 01:57:15;;;;;;;;;;;22.00;37.30;;;;;;5073389;28;19929;-50
2024/01/03 01:59:42;;;;;;;;;;;22.00;37.30;;;;;;5073529;28;19924;-50
2024/01/03 02:02:10;;;;;;;;;;;22.00;37.30;;;;;;5072809;28;20007;-52
2024/01/03 02:04:37;;;;;;;;;;;22.00;37.30;;;;;;5073136;28;20024;-51
2024/01/03 02:07:05;;;;;;;;;;;22.00;37.20;;;;;;5072967;28;20011;-53
2024/01/03 02:09:32;;;;;;;;;;;22.00;37.30;;;;;;5073083;28;19947;-51
2024/01/03 02:11:59;;;;;;;;;;;22.00;37.80;;;;;;5076695;28;19954;-50
2024/01/03 02:14:26;;;;;;;;;;;22.00;37.30;;;;;;5076531;28;20378;-51
2024/01/03 02:16:53;;;;;;;;;;;22.00;37.20;;;;;;5059100;28;19925;-51
2024/01/03 02:19:20;;;;;;;;;;;22.00;37.30;;;;;;5076841;28;19924;-51
2024/01/03 02:21:47;;;;;;;;;;;22.00;37.20;;;;;;5077009;28;19970;-54
2024/01/03 02:24:14;;;;;;;;;;;22.00;37.30;;;;;;5076994;28;20285;-54
2024/01/03 02:26:41;;;;;;;;;;;22.00;37.30;;;;;;5076974;28;19924;-51
2024/01/03 02:29:08;;;;;;;;;;;22.00;37.30;;;;;;5076512;28;19924;-53
2024/01/03 02:31:35;;;;;;;;;;;22.00;37.30;;;;;;5076764;28;20340;-50
2024/01/03 02:34:01;;;;;;;;;;;22.00;37.20;;;;;;5076925;28;20035;-50
2024/01/03 02:36:28;;;;;;;;;;;22.00;37.30;;;;;;5076347;28;20377;-50
2024/01/03 02:38:56;;;;;;;;;;;22.00;37.20;;;;;;5076379;28;20010;-53
2024/01/03 02:41:23;;;;;;;;;;;22.00;37.20;;;;;;5076685;28;20305;-52
2024/01/03 02:43:50;;;;;;;;;;;22.00;37.20;;;;;;5076506;28;19931;-50
2024/01/03 02:46:18;;;;;;;;;;;22.00;37.20;;;;;;5076266;28;20028;-54
2024/01/03 02:48:45;;;;;;;;;;;22.00;37.20;;;;;;5075897;28;19931;-52
2024/01/03 02:51:19;;;;;;;;;;;22.00;37.20;;;;;;5076153;28;19924;-50
2024/01/03 02:53:46;;;;;;;;;;;22.00;37.20;;;;;;5076178;28;19925;-53
2024/01/03 02:56:13;;;;;;;;;;;22.00;37.20;;;;;;5076048;28;19932;-51
2024/01/03 02:58:41;;;;;;;;;;;22.00;37.20;;;;;;5076120;28;20266;-49
2024/01/03 03:01:07;;;;;;;;;;;22.00;37.20;;;;;;5075989;28;19929;-54
2024/01/03 03:03:34;;;;;;;;;;;22.00;37.30;;;;;;5076349;28;19925;-53
2024/01/03 03:06:02;;;;;;;;;;;22.00;37.30;;;;;;5076053;28;19924;-53
2024/01/03 03:08:30;;;;;;;;;;;22.00;37.30;;;;;;5075438;28;19924;-52
2024/01/03 03:10:56;;;;;;;;;;;22.00;37.20;;;;;;5075874;28;19975;-54
2024/01/03 03:13:24;;;;;;;;;;;22.00;37.20;;;;;;5076020;28;19946;-50
2024/01/03 03:15:51;;;;;;;;;;;22.00;37.20;;;;;;5075882;28;19925;-54
2024/01/03 03:18:18;;;;;;;;;;;22.00;37.20;;;;;;5075759;28;20159;-55
2024/01/03 03:20:45;;;;;;;;;;;22.00;37.20;;;;;;5075539;28;20370;-54
2024/01/03 03:23:14;;;;;;;;;;;22.00;37.20;;;;;;5074229;28;20290;-55
2024/01/03 03:25:41;;;;;;;;;;;22.00;37.20;;;;;;5075631;28;19932;-54
2024/01/03 03:28:08;;;;;;;;;;;22.00;37.20;;;;;;5075554;28;19924;-56
2024/01/03 03:30:36;;;;;;;;;;;22.00;37.20;;;;;;5075287;28;19932;-55
2024/01/03 03:33:03;;;;;;;;;;;22.00;37.20;;;;;;5075333;28;19938;-58
2024/01/03 03:35:30;;;;;;;;;;;22.00;37.20;;;;;;5075645;28;20343;-55
2024/01/03 03:37:57;;;;;;;;;;;22.00;37.20;;;;;;5075575;28;19924;-55
2024/01/03 03:40:24;;;;;;;;;;;22.00;37.20;;;;;;5075502;28;19959;-56
2024/01/03 03:42:52;;;;;;;;;;;22.00;37.20;;;;;;5075507;28;19925;-52
2024/01/03 03:45:19;;;;;;;;;;;22.00;37.20;;;;;;5075108;28;20010;-56
2024/01/03 03:47:47;;;;;;;;;;;22.00;37.20;;;;;;5075413;28;20007;-52
2024/01/03 03:50:14;;;;;;;;;;;22.00;37.20;;;;;;5075030;28;19928;-50
2024/01/03 03:52:41;;;;;;;;;;;22.00;37.20;;;;;;5075348;28;19931;-51
2024/01/03 03:55:08;;;;;;;;;;;22.00;37.80;;;;;;5075143;28;20382;-50
2024/01/03 03:57:35;;;;;;;;;;;22.00;37.20;;;;;;5074908;28;19924;-52
2024/01/03 04:00:03;;;;;;;;;;;22.00;37.20;;;;;;5075268;28;20353;-54
2024/01/03 04:02:31;;;;;;;;;;;22.00;37.20;;;;;;5075004;28;19930;-51
2024/01/03 04:04:58;;;;;;;;;;;22.00;37.20;;;;;;5074942;28;19928;-53
2024/01/03 04:07:26;;;;;;;;;;;22.00;37.20;;;;;;5074271;28;20392;-53
2024/01/03 04:09:53;;;;;;;;;;;22.00;37.20;;;;;;5074217;28;20374;-53
2024/01/03 04:12:20;;;;;;;;;;;22.00;37.20;;;;;;5074647;28;19924;-53
2024/01/03 04:14:47;;;;;;;;;;;22.00;37.20;;;;;;5074767;28;19978;-50
2024/01/03 04:17:15;;;;;;;;;;;22.00;37.60;;;;;;5074298;28;19932;-51
2024/01/03 04:19:42;;;;;;;;;;;22.00;37.20;;;;;;5074675;28;19986;-52
2024/01/03 04:22:09;;;;;;;;;;;22.00;37.20;;;;;;5074463;28;20368;-53
2024/01/03 04:24:36;;;;;;;;;;;22.00;37.20;;;;;;5074331;28;19928;-53
2024/01/03 04:27:03;;;;;;;;;;;22.00;37.20;;;;;;5074501;28;19924;-50
2024/01/03 04:29:30;;;;;;;;;;;22.00;37.20;;;;;;5074156;28;19978;-55
2024/01/03 04:31:58;;;;;;;;;;;22.00;37.20;;;;;;5073992;28;20435;-50
2024/01/03 04:34:25;;;;;;;;;;;22.00;37.20;;;;;;5074352;28;20011;-51
2024/01/03 04:36:52;;;;;;;;;;;22.00;37.20;;;;;;5074372;28;19982;-52
2024/01/03 04:39:19;;;;;;;;;;;22.00;37.20;;;;;;5073953;28;19925;-54
2024/01/03 04:41:46;;;;;;;;;;;22.00;37.20;;;;;;5074073;28;19924;-53
2024/01/03 04:44:13;;;;;;;;;;;22.00;37.20;;;;;;5074543;28;19925;-52
2024/01/03 04:46:39;;;;;;;;;;;22.10;37.20;;;;;;5073943;28;19924;-53
2024/01/03 04:49:06;;;;;;;;;;;22.10;37.10;;;;;;5074070;28;19924;-55
2024/01/03 04:51:33;;;;;;;;;;;22.10;37.10;;;;;;5074390;28;20364;-51
2024/01/03 04:54:00;;;;;;;;;;;22.10;37.10;;;;;;5073919;28;20018;-51
2024/01/03 04:56:29;;;;;;;;;;;22.10;37.10;;;;;;5073692;28;19973;-51
2024/01/03 04:58:56;;;;;;;;;;;22.10;37.10;;;;;;5073875;28;20007;-50
2024/01/03 05:01:23;;;;;;;;;;;22.00;37.20;;;;;;5073754;28;20262;-52
2024/01/03 05:03:50;;;;;;;;;;;22.00;37.20;;;;;;5073874;28;19932;-53
2024/01/03 05:06:17;;;;;;;;;;;22.10;37.20;;;;;;5073835;28;19974;-54
2024/01/03 05:08:44;;;;;;;;;;;22.10;37.20;;;;;;5073457;28;19931;-51
2024/01/03 05:11:11;;;;;;;;;;;22.10;37.20;;;;;;5073517;28;19970;-56
2024/01/03 05:13:43;;;;;;;;;;;22.10;37.20;;;;;;5073391;28;20415;-51
2024/01/03 05:16:10;;;;;;;;;;;22.10;37.20;;;;;;5072835;28;20369;-51
2024/01/03 05:18:37;;;;;;;;;;;22.10;37.20;;;;;;5073626;28;19978;-50
2024/01/03 05:21:06;;;;;;;;;;;22.10;37.20;;;;;;5073507;28;19924;-53
2024/01/03 05:23:33;;;;;;;;;;;22.10;37.20;;;;;;5073404;28;20408;-50
2024/01/03 05:26:00;;;;;;;;;;;22.20;37.20;;;;;;5073614;28;20370;-56
2024/01/03 05:28:27;;;;;;;;;;;22.20;37.20;;;;;;5072973;28;19964;-56
2024/01/03 05:30:54;;;;;;;;;;;22.20;37.10;;;;;;5073179;28;20431;-55
2024/01/03 05:33:21;;;;;;;;;;;22.20;37.10;;;;;;5073697;28;19931;-58
2024/01/03 05:35:49;;;;;;;;;;;22.20;37.10;;;;;;5073560;28;19925;-55
2024/01/03 05:38:16;;;;;;;;;;;22.20;37.10;;;;;;5072643;28;20043;-55
2024/01/03 05:40:43;;;;;;;;;;;22.20;37.20;;;;;;5073086;28;19924;-51
2024/01/03 05:43:11;;;;;;;;;;;22.20;37.10;;;;;;5073312;28;19925;-50
2024/01/03 05:45:38;;;;;;;;;;;22.20;37.10;;;;;;5072255;28;19929;-52
2024/01/03 05:48:05;;;;;;;;;;;22.20;37.10;;;;;;5073282;28;19952;-50
2024/01/03 05:50:32;;;;;;;;;;;22.20;37.10;;;;;;5072700;28;20362;-50
2024/01/03 05:52:59;;;;;;;;;;;22.20;37.10;;;;;;5072731;28;19924;-49
2024/01/03 05:55:26;;;;;;;;;;;22.20;37.10;;;;;;5072752;28;19929;-51
2024/01/03 05:57:53;;;;;;;;;;;22.30;37.20;;;;;;5073122;28;20358;-52
2024/01/03 06:00:21;;;;;;;;;;;22.30;37.20;;;;;;5072701;28;20440;-53
2024/01/03 06:02:48;;;;;;;;;;;22.30;37.20;;;;;;5071994;28;19976;-50
2024/01/03 06:05:18;;;;;;;;;;;22.30;37.20;;;;;;5072877;28;19924;-55
2024/01/03 06:07:45;;;;;;;;;;;22.30;37.20;;;;;;5072318;28;20031;-53
2024/01/03 06:10:12;;;;;;;;;;;22.30;37.20;;;;;;5072017;28;19929;-52
2024/01/03 06:12:39;;;;;;;;;;;22.30;37.20;;;;;;5071343;28;19924;-53
2024/01/03 06:15:06;;;;;;;;;;;22.30;37.20;;;;;;5072206;28;20027;-53
2024/01/03 06:17:33;;;;;;;;;;;22.30;37.20;;;;;;5052263;28;19932;-59
2024/01/03 06:20:00;;;;;;;;;;;22.30;37.20;;;;;;5069971;28;19933;-52
2024/01/03 06:22:27;;;;;;;;;;;22.30;37.30;;;;;;5071307;28;20298;-52
2024/01/03 06:24:54;;;;;;;;;;;22.30;37.40;;;;;;5072142;28;20357;-53
2024/01/03 06:27:21;;;;;;;;;;;22.30;37.60;;;;;;5065358;28;19924;-57
2024/01/03 06:29:49;;;;;;;;;;;22.40;37.80;;;;;;5065788;28;20373;-58
2024/01/03 06:32:17;;;;;;;;;;;22.40;38.10;;;;;;5064252;28;19924;-54
2024/01/03 06:34:44;;;;;;;;;;;22.40;38.10;;;;;;5066828;28;20324;-57
2024/01/03 06:37:11;;;;;;;;;;;22.40;38.30;;;;;;5070682;28;19924;-54
2024/01/03 06:39:38;;;;;;;;;;;22.40;38.60;;;;;;5067356;28;20384;-58
2024/01/03 06:42:05;;;;;;;;;;;22.50;39.00;;;;;;5063440;28;20045;-59
2024/01/03 06:44:32;;;;;;;;;;;22.50;39.10;;;;;;5063246;28;20404;-53
2024/01/03 06:46:59;;;;;;;;;;;22.50;39.30;;;;;;5058341;28;19935;-57
2024/01/03 06:49:26;;;;;;;;;;;22.50;39.40;;;;;;5059077;28;19931;-56
2024/01/03 06:51:55;;;;;;;;;;;22.60;39.30;;;;;;5059091;28;19968;-57
2024/01/03 06:54:25;;;;;;;;;;;22.60;39.20;;;;;;5061777;28;19939;-58
2024/01/03 06:56:52;;;;;;;;;;;22.60;38.90;;;;;;5063835;28;20336;-57
2024/01/03 06:59:20;;;;;;;;;;;22.70;38.70;;;;;;5068660;28;19931;-58
2024/01/03 07:01:47;;;;;;;;;;;22.60;38.60;;;;;;5066099;28;19965;-59
2024/01/03 07:04:14;;;;;;;;;;;22.70;38.50;;;;;;5069731;28;20030;-57
2024/01/03 07:06:41;;;;;;;;;;;22.70;38.80;;;;;;5061808;28;20034;-57
2024/01/03 07:09:08;;;;;;;;;;;22.70;38.60;;;;;;5069616;28;19924;-57
2024/01/03 07:11:35;;;;;;;;;;;22.70;38.80;;;;;;5067479;28;19933;-57
2024/01/03 07:14:02;;;;;;;;;;;22.70;38.90;;;;;;5071505;28;19930;-55
2024/01/03 07:16:29;;;;;;;;;;;22.80;39.10;;;;;;5067930;28;19933;-57
2024/01/03 07:18:56;;;;;;;;;;;22.80;39.20;;;;;;5064606;28;19961;-58
2024/01/03 07:21:23;;;;;;;;;;;22.80;39.30;;;;;;5067248;28;19929;-55
2024/01/03 07:23:50;;;;;;;;;;;22.90;39.40;;;;;;5067573;28;19939;-54
2024/01/03 07:26:17;;;;;;;;;;;23.00;40.00;;;;;;5069154;28;19925;-60
2024/01/03 07:28:44;;;;;;;;;;;23.00;39.40;;;;;;5067652;28;19933;-58
2024/01/03 07:31:11;;;;;;;;;;;23.10;39.30;;;;;;5047057;28;19974;-57
2024/01/03 07:33:40;;;;;;;;;;;23.10;39.10;;;;;;5064817;28;20519;-57
2024/01/03 07:36:08;;;;;;;;;;;23.10;39.00;;;;;;5064949;28;19929;-58
2024/01/03 07:38:36;;;;;;;;;;;23.10;38.90;;;;;;5063308;28;19924;-58
2024/01/03 07:41:03;;;;;;;;;;;23.10;38.80;;;;;;5061273;28;19933;-57
2024/01/03 07:43:30;;;;;;;;;;;23.10;38.80;;;;;;5061995;28;19928;-59
2024/01/03 07:45:57;;;;;;;;;;;23.10;38.80;;;;;;5068318;28;19924;-59
2024/01/03 07:48:24;;;;;;;;;;;23.10;38.80;;;;;;5064687;28;19932;-60
2024/01/03 07:50:52;;;;;;;;;;;23.10;38.70;;;;;;5067026;28;19943;-57
2024/01/03 07:53:19;;;;;;;;;;;23.10;38.70;;;;;;5063864;28;19944;-56
2024/01/03 07:55:46;;;;;;;;;;;23.10;38.70;;;;;;5063770;28;19932;-62
2024/01/03 07:58:13;;;;;;;;;;;23.10;38.70;;;;;;5065308;28;20030;-64
2024/01/03 08:00:40;;;;;;;;;;;23.10;38.80;;;;;;5060571;28;19960;-58
2024/01/03 08:03:07;;;;;;;;;;;23.10;38.80;;;;;;5060660;28;19979;-59
2024/01/03 08:05:34;;;;;;;;;;;23.20;38.90;;;;;;5065126;28;19929;-62
2024/01/03 08:08:01;;;;;;;;;;;23.20;38.90;;;;;;5060407;28;20361;-69
2024/01/03 08:10:28;;;;;;;;;;;23.20;39.00;;;;;;5067423;28;19932;-58
2024/01/03 08:12:55;;;;;;;;;;;23.20;39.00;;;;;;5064476;28;20007;-66
2024/01/03 08:15:22;;;;;;;;;;;23.30;39.10;;;;;;5061867;28;20473;-60
2024/01/03 08:17:49;;;;;;;;;;;23.30;39.20;;;;;;5069609;28;19935;-60
2024/01/03 08:20:16;;;;;;;;;;;23.30;39.20;;;;;;5058811;28;20191;-62
2024/01/03 08:22:43;;;;;;;;;;;23.40;39.30;;;;;;5064454;28;19971;-60
2024/01/03 08:25:10;;;;;;;;;;;23.40;39.30;;;;;;5049210;28;21664;-58
2024/01/03 08:27:38;;;;;;;;;;;23.50;39.50;;;;;;5065586;28;19924;-58
2024/01/03 08:30:07;;;;;;;;;;;23.50;39.30;;;;;;5060829;28;19956;-56
2024/01/03 08:32:36;;;;;;;;;;;23.50;39.10;;;;;;5066694;28;19998;-58
2024/01/03 08:35:04;;;;;;;;;;;23.60;39.10;;;;;;5061751;28;19929;-58
2024/01/03 08:37:31;;;;;;;;;;;23.60;39.10;;;;;;5061815;28;20344;-64
2024/01/03 08:39:59;;;;;;;;;;;23.60;39.20;;;;;;5061773;28;19933;-59
2024/01/03 08:42:26;;;;;;;;;;;23.60;39.50;;;;;;5067634;28;20328;-60
2024/01/03 08:44:53;;;;;;;;;;;23.60;39.30;;;;;;5061115;28;20404;-58
2024/01/03 08:47:20;;;;;;;;;;;23.60;39.10;;;;;;5062759;28;19929;-57
2024/01/03 08:49:47;;;;;;;;;;;23.70;38.90;;;;;;5063977;28;19934;-59
2024/01/03 08:52:17;;;;;;;;;;;23.60;38.70;;;;;;5047832;28;19930;-59
2024/01/03 08:54:45;;;;;;;;;;;23.70;38.70;;;;;;5065441;28;19928;-59
2024/01/03 08:57:12;;;;;;;;;;;23.70;38.50;;;;;;5067703;28;19970;-58
2024/01/03 08:59:40;;;;;;;;;;;23.70;38.50;;;;;;5065227;28;19937;-57
2024/01/03 09:02:07;;;;;;;;;;;23.70;38.50;;;;;;5067010;28;20332;-58
2024/01/03 09:04:34;;;;;;;;;;;23.70;38.40;;;;;;5068115;28;19924;-59
2024/01/03 09:07:01;;;;;;;;;;;23.70;38.40;;;;;;5065049;28;19974;-59
2024/01/03 09:09:28;;;;;;;;;;;23.70;38.30;;;;;;5068409;28;19983;-58
2024/01/03 09:11:55;;;;;;;;;;;23.70;38.20;;;;;;5063249;28;19925;-59
2024/01/03 09:14:22;;;;;;;;;;;23.70;38.20;;;;;;5068739;28;20396;-58
2024/01/03 09:16:50;;;;;;;;;;;23.80;38.20;;;;;;5065470;28;20302;-61
2024/01/03 09:19:18;;;;;;;;;;;23.70;38.10;;;;;;5061387;28;20021;-55
2024/01/03 09:21:45;;;;;;;;;;;23.80;38.20;;;;;;5057979;28;20570;-57
2024/01/03 09:24:13;;;;;;;;;;;23.80;38.10;;;;;;5065649;28;20289;-54
2024/01/03 09:26:40;;;;;;;;;;;23.80;38.10;;;;;;5067629;28;20286;-57
2024/01/03 09:29:07;;;;;;;;;;;23.90;38.20;;;;;;5063285;28;19929;-56
2024/01/03 09:31:40;;;;;;;;;;;23.90;38.20;;;;;;5040272;28;20149;-54
2024/01/03 09:34:07;;;;;;;;;;;23.90;38.20;;;;;;5063377;28;20332;-56
2024/01/03 09:36:34;;;;;;;;;;;23.90;38.20;;;;;;5064193;28;20007;-59
2024/01/03 09:39:01;;;;;;;;;;;23.90;38.10;;;;;;5052638;28;19974;-59
2024/01/03 09:41:29;;;;;;;;;;;23.90;38.10;;;;;;5063444;28;19999;-57
2024/01/03 09:43:56;;;;;;;;;;;23.90;38.00;;;;;;5064079;28;19933;-60
2024/01/03 09:46:24;;;;;;;;;;;23.90;38.20;;;;;;5062321;28;20102;-57
2024/01/03 09:48:51;;;;;;;;;;;24.00;38.60;;;;;;5064930;28;20282;-53
2024/01/03 09:51:21;;;;;;;;;;;24.00;38.80;;;;;;5064318;28;19931;-56
2024/01/03 09:53:51;;;;;;;;;;;24.10;39.00;;;;;;5061722;28;19932;-57
2024/01/03 09:56:18;;;;;;;;;;;24.10;39.70;;;;;;5066202;28;19925;-61
2024/01/03 09:58:45;;;;;;;;;;;24.10;39.70;;;;;;5070936;28;20017;-59
2024/01/03 10:01:12;;;;;;;;;;;24.20;39.20;;;;;;5064790;28;20354;-58
2024/01/03 10:03:39;;;;;;;;;;;24.20;39.20;;;;;;5061343;28;20052;-63
2024/01/03 10:06:07;;;;;;;;;;;24.30;39.20;;;;;;5062715;28;19924;-58
2024/01/03 10:08:41;;;;;;;;;;;24.20;38.90;;;;;;5068228;28;19924;-60
2024/01/03 10:11:22;;;;;;;;;;;24.20;38.50;;;;;;5067665;28;19967;-57
2024/01/03 10:13:52;;;;;;;;;;;24.20;38.30;;;;;;5064997;28;19939;-54
2024/01/03 10:16:23;;;;;;;;;;;24.20;38.10;;;;;;5059372;28;19968;-56
2024/01/03 10:19:06;;;;;;;;;;;24.20;38.00;;;;;;5062475;28;19971;-57
2024/01/03 10:21:34;;;;;;;;;;;24.30;38.00;;;;;;5062841;28;19929;-56
2024/01/03 10:24:05;;;;;;;;;;;24.20;38.00;;;;;;5061724;28;20764;-56
2024/01/03 10:26:33;;;;;;;;;;;24.20;38.00;;;;;;5057435;28;19939;-56
2024/01/03 10:29:14;;;;;;;;;;;24.30;38.10;;;;;;5060173;28;19939;-56
2024/01/03 10:31:41;;;;;;;;;;;24.30;38.20;;;;;;5063399;28;19924;-55
2024/01/03 10:34:15;;;;;;;;;;;24.30;38.20;;;;;;5066205;28;19932;-55
2024/01/03 10:36:43;;;;;;;;;;;24.30;38.20;;;;;;5063383;28;19935;-58
2024/01/03 10:39:14;;;;;;;;;;;24.30;38.10;;;;;;5066781;28;19924;-57
2024/01/03 10:41:41;;;;;;;;;;;24.30;38.00;;;;;;5066500;28;19935;-55
2024/01/03 10:44:09;;;;;;;;;;;24.30;37.90;;;;;;5061554;28;20023;-53
2024/01/03 10:46:36;;;;;;;;;;;24.30;37.70;;;;;;5068496;28;20350;-55
2024/01/03 10:49:06;;;;;;;;;;;24.30;37.70;;;;;;5067868;28;20881;-53
2024/01/03 10:51:37;;;;;;;;;;;24.40;37.70;;;;;;5045202;28;19948;-52
2024/01/03 10:54:05;;;;;;;;;;;24.40;37.70;;;;;;5068090;28;19929;-54
2024/01/03 10:56:34;;;;;;;;;;;24.40;37.60;;;;;;5070005;28;19924;-53
2024/01/03 10:59:02;;;;;;;;;;;24.40;37.60;;;;;;5070049;28;20043;-56
2024/01/03 11:01:31;;;;;;;;;;;24.40;37.60;;;;;;5070609;28;19924;-55
2024/01/03 11:04:16;;;;;;;;;;;24.50;37.60;;;;;;5069266;28;19932;-53
2024/01/03 11:06:58;;;;;;;;;;;24.50;37.60;;;;;;5069549;28;19940;-52
2024/01/03 11:09:25;;;;;;;;;;;24.50;37.50;;;;;;5067885;28;19971;-55
2024/01/03 11:12:05;;;;;;;;;;;24.60;37.50;;;;;;5063980;28;19932;-56
2024/01/03 11:14:32;;;;;;;;;;;24.60;37.50;;;;;;5067442;28;20012;-54
2024/01/03 11:16:59;;;;;;;;;;;24.60;37.30;;;;;;5068388;28;19924;-56
2024/01/03 11:19:28;;;;;;;;;;;24.60;37.30;;;;;;5068256;28;19933;-56
2024/01/03 11:21:55;;;;;;;;;;;24.60;37.20;;;;;;5067489;28;19978;-55
2024/01/03 11:24:41;;;;;;;;;;;24.60;37.20;;;;;;5064551;28;19932;-53
2024/01/03 11:27:16;;;;;;;;;;;24.70;37.20;;;;;;5065666;28;19925;-55
2024/01/03 11:29:45;;;;;;;;;;;24.70;37.20;;;;;;5064107;28;19936;-59
2024/01/03 11:32:13;;;;;;;;;;;24.70;37.10;;;;;;5069868;28;20007;-57
2024/01/03 11:34:44;;;;;;;;;;;24.70;37.10;;;;;;5065693;28;20034;-52
2024/01/03 11:37:31;;;;;;;;;;;24.70;37.10;;;;;;5068281;28;20526;-56
2024/01/03 11:39:58;;;;;;;;;;;24.70;37.10;;;;;;5058737;28;20005;-55
2024/01/03 11:42:28;;;;;;;;;;;24.70;37.00;;;;;;5066812;28;19928;-54
2024/01/03 11:44:59;;;;;;;;;;;24.70;37.00;;;;;;5066531;28;19938;-57
2024/01/03 11:47:27;;;;;;;;;;;24.70;37.00;;;;;;5064868;28;20019;-55
2024/01/03 11:49:56;;;;;;;;;;;24.70;37.00;;;;;;5065111;28;19932;-58
2024/01/03 11:52:23;;;;;;;;;;;24.70;37.00;;;;;;5059709;28;20054;-58
2024/01/03 11:54:50;;;;;;;;;;;24.70;37.10;;;;;;5063978;28;20826;-58
2024/01/03 11:57:21;;;;;;;;;;;24.70;37.20;;;;;;5065934;28;20566;-58
2024/01/03 11:59:59;;;;;;;;;;;24.70;37.20;;;;;;5071878;28;19985;-57
2024/01/03 12:02:27;;;;;;;;;;;24.70;37.30;;;;;;5068700;28;20301;-56
2024/01/03 12:04:58;;;;;;;;;;;24.70;37.40;;;;;;5065028;28;19964;-56
2024/01/03 12:07:26;;;;;;;;;;;24.80;37.90;;;;;;5066887;28;20019;-57
2024/01/03 12:09:54;;;;;;;;;;;24.80;38.10;;;;;;5068898;28;19924;-53
2024/01/03 12:12:21;;;;;;;;;;;24.80;38.30;;;;;;5068059;28;19925;-55
2024/01/03 12:14:55;;;;;;;;;;;24.80;38.40;;;;;;5067471;28;20045;-57
2024/01/03 12:17:29;;;;;;;;;;;24.90;38.50;;;;;;5066903;28;19924;-53
2024/01/03 12:20:11;;;;;;;;;;;24.90;38.10;;;;;;5070147;28;19928;-53
2024/01/03 12:22:38;;;;;;;;;;;24.90;37.60;;;;;;5065136;28;19967;-53
2024/01/03 12:25:05;;;;;;;;;;;25.00;37.10;;;;;;5065828;28;20005;-54
2024/01/03 12:27:33;;;;;;;;;;;25.00;36.90;;;;;;5068495;28;19933;-54
2024/01/03 12:30:15;;;;;;;;;;;25.00;36.90;;;;;;5066776;28;19932;-56
2024/01/03 12:32:43;;;;;;;;;;;25.00;36.90;;;;;;5066298;28;20358;-56
2024/01/03 12:35:12;;;;;;;;;;;25.00;37.00;;;;;;5049953;28;19939;-57
2024/01/03 12:37:42;;;;;;;;;;;25.00;36.90;;;;;;5071071;28;20355;-57
2024/01/03 12:40:12;;;;;;;;;;;25.00;36.90;;;;;;5067782;28;19928;-57
2024/01/03 12:42:39;;;;;;;;;;;25.00;36.90;;;;;;5056139;28;19973;-57
2024/01/03 12:45:09;;;;;;;;;;;25.00;36.80;;;;;;5050455;28;19924;-55
2024/01/03 12:47:36;;;;;;;;;;;25.00;36.90;;;;;;5062164;28;20697;-56
2024/01/03 12:50:03;;;;;;;;;;;25.10;37.00;;;;;;5062824;28;19925;-56
2024/01/03 12:52:31;;;;;;;;;;;25.00;36.90;;;;;;5065605;28;19932;-54
2024/01/03 12:54:58;;;;;;;;;;;25.00;36.90;;;;;;5065568;28;19972;-57
2024/01/03 12:57:25;;;;;;;;;;;25.00;36.90;;;;;;5064624;28;20063;-54
2024/01/03 12:59:52;;;;;;;;;;;25.00;36.90;;;;;;5066955;28;20018;-57
2024/01/03 13:02:19;;;;;;;;;;;25.00;36.90;;;;;;5059813;28;20301;-55
2024/01/03 13:04:46;;;;;;;;;;;25.10;37.00;;;;;;5065257;28;19986;-58
2024/01/03 13:07:14;;;;;;;;;;;25.10;37.20;;;;;;5066418;28;20285;-55
2024/01/03 13:09:43;;;;;;;;;;;25.00;37.00;;;;;;5062697;28;20419;-55
2024/01/03 13:12:10;;;;;;;;;;;25.10;37.10;;;;;;5064799;28;19932;-56
2024/01/03 13:14:37;;;;;;;;;;;25.10;37.10;;;;;;5067475;28;20062;-54
2024/01/03 13:17:04;;;;;;;;;;;25.10;37.10;;;;;;5046011;28;19932;-54
2024/01/03 13:19:31;;;;;;;;;;;25.10;37.20;;;;;;5066798;28;20370;-54
2024/01/03 13:21:59;;;;;;;;;;;25.10;37.20;;;;;;5068266;28;19970;-56
2024/01/03 13:24:26;;;;;;;;;;;25.10;37.30;;;;;;5067095;28;19939;-59
2024/01/03 13:26:53;;;;;;;;;;;25.10;37.30;;;;;;5064191;28;19932;-60
2024/01/03 13:29:20;;;;;;;;;;;25.10;37.30;;;;;;5064914;28;19940;-52
2024/01/03 13:31:47;;;;;;;;;;;25.10;37.20;;;;;;5064551;28;19928;-54
2024/01/03 13:34:15;;;;;;;;;;;25.10;37.30;;;;;;5064918;28;19928;-53
2024/01/03 13:36:42;;;;;;;;;;;25.10;37.30;;;;;;5065285;28;19931;-57
2024/01/03 13:39:11;;;;;;;;;;;25.10;37.40;;;;;;5068046;28;19932;-57
2024/01/03 13:41:38;;;;;;;;;;;25.10;37.90;;;;;;5066834;28;20300;-54
2024/01/03 13:44:06;;;;;;;;;;;25.10;37.40;;;;;;5065226;28;19932;-56
2024/01/03 13:46:33;;;;;;;;;;;25.10;37.50;;;;;;5066689;28;20503;-56
2024/01/03 13:49:00;;;;;;;;;;;25.10;37.50;;;;;;5065344;28;19932;-57
2024/01/03 13:51:27;;;;;;;;;;;25.10;37.70;;;;;;5062808;28;21671;-57
2024/01/03 13:53:58;;;;;;;;;;;25.10;37.80;;;;;;5063461;28;20011;-57
2024/01/03 13:56:25;;;;;;;;;;;25.10;37.90;;;;;;5066230;28;20454;-55
2024/01/03 13:58:53;;;;;;;;;;;25.10;37.80;;;;;;5064198;28;19932;-57
2024/01/03 14:01:20;;;;;;;;;;;25.10;37.70;;;;;;5064891;28;19928;-55
2024/01/03 14:03:47;;;;;;;;;;;25.10;37.70;;;;;;5065962;28;19929;-57
2024/01/03 14:06:15;;;;;;;;;;;25.10;37.70;;;;;;5063385;28;19932;-53
2024/01/03 14:08:42;;;;;;;;;;;25.10;37.70;;;;;;5067859;28;19924;-57
2024/01/03 14:11:10;;;;;;;;;;;25.10;37.70;;;;;;5069235;28;19928;-52
2024/01/03 14:13:36;;;;;;;;;;;25.10;37.80;;;;;;5073302;28;20052;-61
2024/01/03 14:16:07;;;;;;;;;;;25.10;37.90;;;;;;5066889;28;20360;-54
2024/01/03 14:18:34;;;;;;;;;;;25.10;38.40;;;;;;5069847;28;20008;-55
2024/01/03 14:21:02;;;;;;;;;;;25.10;38.00;;;;;;5068796;28;19939;-54